createdAt,value
2022-12-18T00:01:20.875Z,5.75
2022-12-18T00:03:48.445Z,5.75
2022-12-18T00:06:16.412Z,5.20
2022-12-18T00:08:44.593Z,6.95
2022-12-18T00:11:17.282Z,6.78
2022-12-18T00:13:44.792Z,6.15
2022-12-18T00:16:14.773Z,6.22
2022-12-18T00:18:42.678Z,6.43
2022-12-18T00:21:12.829Z,6.90
2022-12-18T00:23:43.475Z,5.78
2022-12-18T00:26:16.529Z,7.78
2022-12-18T00:28:44.703Z,6.15
2022-12-18T00:31:16.460Z,6.15
2022-12-18T00:33:46.012Z,5.07
2022-12-18T00:36:20.612Z,6.32
2022-12-18T00:38:48.863Z,6.50
2022-12-18T00:41:40.157Z,6.70
2022-12-18T00:44:08.952Z,6.15
2022-12-18T00:46:36.410Z,6.05
2022-12-18T00:49:04.364Z,6.28
2022-12-18T00:51:32.035Z,6.63
2022-12-18T00:53:59.241Z,6.28
2022-12-18T00:56:26.665Z,6.07
2022-12-18T00:58:54.375Z,6.32
2022-12-18T01:01:21.835Z,6.18
2022-12-18T01:03:49.197Z,5.63
2022-12-18T01:06:17.822Z,7.32
2022-12-18T01:08:45.762Z,6.00
2022-12-18T01:11:19.451Z,7.18
2022-12-18T01:13:46.900Z,5.50
2022-12-18T01:16:16.370Z,6.53
2022-12-18T01:18:43.731Z,5.50
2022-12-18T01:21:14.138Z,7.07
2022-12-18T01:23:41.841Z,6.45
2022-12-18T01:26:13.986Z,7.55
2022-12-18T01:28:41.292Z,6.10
2022-12-18T01:31:23.834Z,5.90
2022-12-18T01:33:55.025Z,5.95
2022-12-18T01:36:27.985Z,6.85
2022-12-18T01:38:55.620Z,6.80
2022-12-18T01:41:27.409Z,5.57
2022-12-18T01:43:58.855Z,6.57
2022-12-18T01:49:02.321Z,7.10
2022-12-18T01:51:32.088Z,6.25
2022-12-18T01:54:01.885Z,5.25
2022-12-18T01:56:29.711Z,7.25
2022-12-18T01:59:07.146Z,4.88
2022-12-18T02:01:34.417Z,4.88
2022-12-18T02:04:26.114Z,5.50
2022-12-18T02:07:08.551Z,4.75
2022-12-18T02:09:44.606Z,5.88
2022-12-18T02:12:20.715Z,5.00
2022-12-18T02:15:05.279Z,6.28
2022-12-18T02:17:52.519Z,5.00
2022-12-18T02:20:55.970Z,7.65
2022-12-18T02:23:48.555Z,5.15
2022-12-18T02:26:45.908Z,5.63
2022-12-18T02:29:39.989Z,4.90
2022-12-18T02:32:12.053Z,6.45
2022-12-18T02:34:41.208Z,4.97
2022-12-18T02:37:17.377Z,4.88
2022-12-18T02:39:48.004Z,5.25
2022-12-18T02:42:16.297Z,5.50
2022-12-18T02:44:48.823Z,5.90
2022-12-18T02:47:23.287Z,6.68
2022-12-18T02:50:42.417Z,6.00
2022-12-18T02:53:35.107Z,5.63
2022-12-18T02:56:32.168Z,6.72
2022-12-18T02:59:09.705Z,6.13
2022-12-18T03:01:57.509Z,5.95
2022-12-18T03:04:34.910Z,5.20
2022-12-18T03:07:09.351Z,5.30
2022-12-18T03:09:41.018Z,4.32
2022-12-18T03:12:25.260Z,5.93
2022-12-18T03:15:05.987Z,4.18
2022-12-18T03:17:34.846Z,6.80
2022-12-18T03:20:12.753Z,6.25
2022-12-18T03:22:43.139Z,5.30
2022-12-18T03:25:14.529Z,5.75
2022-12-18T03:27:49.148Z,5.10
2022-12-18T03:30:18.608Z,4.15
2022-12-18T03:33:00.498Z,5.03
2022-12-18T03:35:36.105Z,5.60
2022-12-18T03:38:05.131Z,4.32
2022-12-18T03:41:05.221Z,5.05
2022-12-18T03:44:02.330Z,5.60
2022-12-18T03:46:58.725Z,5.07
2022-12-18T03:49:34.858Z,5.22
2022-12-18T03:52:31.608Z,5.07
2022-12-18T03:55:00.999Z,6.15
2022-12-18T03:57:31.667Z,6.50
2022-12-18T04:00:05.466Z,6.15
2022-12-18T04:02:46.838Z,5.80
2022-12-18T04:05:21.825Z,6.47
2022-12-18T04:07:51.287Z,5.93
2022-12-18T04:10:19.501Z,6.47
2022-12-18T04:12:47.762Z,7.50
2022-12-18T04:15:16.004Z,6.10
2022-12-18T04:17:49.849Z,5.65
2022-12-18T04:20:20.192Z,6.68
2022-12-18T04:22:48.385Z,7.07
2022-12-18T04:25:15.798Z,5.88
2022-12-18T04:27:54.822Z,6.93
2022-12-18T04:30:21.966Z,6.25
2022-12-18T04:32:52.316Z,7.43
2022-12-18T04:35:21.360Z,6.65
2022-12-18T04:37:48.849Z,6.63
2022-12-18T04:40:16.485Z,6.78
2022-12-18T04:42:46.591Z,6.70
2022-12-18T04:45:14.213Z,7.57
2022-12-18T04:47:42.455Z,8.52
2022-12-18T04:50:09.707Z,6.90
2022-12-18T04:52:36.868Z,6.93
2022-12-18T04:55:04.487Z,10.45
2022-12-18T04:57:31.602Z,7.60
2022-12-18T04:59:58.562Z,6.75
2022-12-18T05:02:25.883Z,7.90
2022-12-18T05:04:52.988Z,7.28
2022-12-18T05:07:20.504Z,7.32
2022-12-18T05:09:47.783Z,8.95
2022-12-18T05:12:14.805Z,5.88
2022-12-18T05:14:42.409Z,7.25
2022-12-18T05:17:09.411Z,8.55
2022-12-18T05:19:39.368Z,6.75
2022-12-18T05:22:09.181Z,7.93
2022-12-18T05:24:36.359Z,9.18
2022-12-18T05:27:03.604Z,9.07
2022-12-18T05:29:30.803Z,7.60
2022-12-18T05:31:57.843Z,9.07
2022-12-18T05:34:25.088Z,8.52
2022-12-18T05:36:52.078Z,8.05
2022-12-18T05:39:19.173Z,6.90
2022-12-18T05:41:46.120Z,8.93
2022-12-18T05:44:14.043Z,6.38
2022-12-18T05:46:42.786Z,9.30
2022-12-18T05:49:10.411Z,9.05
2022-12-18T05:51:37.584Z,8.40
2022-12-18T05:54:05.130Z,9.63
2022-12-18T05:56:33.043Z,8.02
2022-12-18T05:59:00.391Z,9.38
2022-12-18T06:01:28.301Z,7.25
2022-12-18T06:03:56.833Z,5.57
2022-12-18T06:06:26.507Z,6.30
2022-12-18T06:08:55.182Z,7.95
2022-12-18T06:11:25.410Z,8.52
2022-12-18T06:13:58.629Z,8.50
2022-12-18T06:16:27.628Z,9.38
2022-12-18T06:18:57.235Z,6.40
2022-12-18T06:21:24.301Z,9.63
2022-12-18T06:23:51.670Z,8.60
2022-12-18T06:26:22.089Z,6.80
2022-12-18T06:28:51.982Z,7.65
2022-12-18T06:31:19.206Z,7.10
2022-12-18T06:33:46.168Z,7.90
2022-12-18T06:36:14.195Z,7.00
2022-12-18T06:38:43.402Z,8.52
2022-12-18T06:41:12.989Z,7.60
2022-12-18T06:43:40.407Z,9.05
2022-12-18T06:46:08.073Z,8.13
2022-12-18T06:48:35.498Z,8.27
2022-12-18T06:51:03.412Z,9.10
2022-12-18T06:53:30.923Z,10.55
2022-12-18T06:56:09.908Z,8.13
2022-12-18T06:58:37.967Z,8.13
2022-12-18T07:01:08.957Z,9.68
2022-12-18T07:03:36.308Z,9.27
2022-12-18T07:06:04.164Z,9.68
2022-12-18T07:08:32.692Z,8.70
2022-12-18T07:11:00.084Z,9.75
2022-12-18T07:13:28.106Z,9.68
2022-12-18T07:15:55.176Z,10.77
2022-12-18T07:18:22.273Z,11.07
2022-12-18T07:20:49.307Z,12.38
2022-12-18T07:23:16.723Z,11.13
2022-12-18T07:25:43.983Z,11.82
2022-12-18T07:28:17.056Z,12.32
2022-12-18T07:30:44.450Z,8.60
2022-12-18T07:33:11.567Z,13.77
2022-12-18T07:35:39.223Z,10.63
2022-12-18T07:38:06.612Z,12.93
2022-12-18T07:40:34.211Z,13.68
2022-12-18T07:43:01.438Z,12.32
2022-12-18T07:45:28.434Z,11.00
2022-12-18T07:47:55.710Z,12.25
2022-12-18T07:50:23.085Z,11.77
2022-12-18T07:52:50.078Z,12.73
2022-12-18T07:55:17.294Z,10.63
2022-12-18T07:57:53.409Z,11.30
2022-12-18T08:00:23.848Z,11.80
2022-12-18T08:02:50.902Z,12.35
2022-12-18T08:05:18.607Z,12.05
2022-12-18T08:07:45.662Z,13.18
2022-12-18T08:10:13.064Z,12.40
2022-12-18T08:12:40.284Z,11.82
2022-12-18T08:15:08.603Z,12.63
2022-12-18T08:17:35.633Z,11.07
2022-12-18T08:20:02.951Z,10.15
2022-12-18T08:22:30.117Z,11.85
2022-12-18T08:24:57.439Z,12.05
2022-12-18T08:27:31.479Z,9.82
2022-12-18T08:29:59.755Z,10.93
2022-12-18T08:32:29.892Z,12.23
2022-12-18T08:34:57.649Z,10.95
2022-12-18T08:37:25.115Z,8.88
2022-12-18T08:39:52.270Z,11.07
2022-12-18T08:42:38.429Z,12.45
2022-12-18T08:45:06.010Z,10.77
2022-12-18T08:47:33.164Z,9.23
2022-12-18T08:50:00.216Z,11.18
2022-12-18T08:52:27.206Z,11.55
2022-12-18T08:54:54.225Z,11.73
2022-12-18T08:57:21.327Z,9.85
2022-12-18T08:59:49.735Z,9.43
2022-12-18T09:02:17.029Z,12.45
2022-12-18T09:04:46.761Z,11.00
2022-12-18T09:07:14.115Z,10.43
2022-12-18T09:09:41.253Z,8.85
2022-12-18T09:12:08.365Z,7.15
2022-12-18T09:14:35.347Z,7.47
2022-12-18T09:17:02.303Z,7.63
2022-12-18T09:19:29.450Z,10.43
2022-12-18T09:21:57.226Z,7.68
2022-12-18T09:24:24.336Z,10.52
2022-12-18T09:26:57.820Z,7.80
2022-12-18T09:29:25.797Z,9.40
2022-12-18T09:31:53.277Z,7.80
2022-12-18T09:34:22.216Z,8.60
2022-12-18T09:36:50.064Z,9.93
2022-12-18T09:39:17.398Z,9.90
2022-12-18T09:41:56.023Z,9.35
2022-12-18T09:44:47.461Z,9.07
2022-12-18T09:47:27.188Z,9.98
2022-12-18T09:49:57.946Z,8.05
2022-12-18T09:52:32.044Z,9.90
2022-12-18T09:55:25.818Z,10.10
2022-12-18T09:57:57.689Z,8.65
2022-12-18T10:00:26.425Z,9.00
2022-12-18T10:03:00.074Z,8.25
2022-12-18T10:05:43.418Z,7.30
2022-12-18T10:08:51.070Z,9.65
2022-12-18T10:12:00.977Z,9.05
2022-12-18T10:14:43.674Z,9.45
2022-12-18T10:17:49.051Z,8.48
2022-12-18T10:20:30.732Z,7.25
2022-12-18T10:23:26.196Z,8.43
2022-12-18T10:26:11.445Z,9.73
2022-12-18T10:28:41.957Z,10.32
2022-12-18T10:31:18.259Z,8.05
2022-12-18T10:33:45.774Z,8.88
2022-12-18T10:36:14.387Z,8.90
2022-12-18T10:38:41.841Z,11.88
2022-12-18T10:41:29.657Z,13.77
2022-12-18T10:44:23.658Z,12.18
2022-12-18T10:46:57.249Z,10.88
2022-12-18T10:49:28.106Z,9.32
2022-12-18T10:52:24.144Z,8.00
2022-12-18T10:55:02.829Z,8.13
2022-12-18T10:57:38.322Z,8.35
2022-12-18T11:00:29.283Z,7.72
2022-12-18T11:02:58.677Z,8.88
2022-12-18T11:05:32.025Z,7.97
2022-12-18T11:08:03.278Z,6.63
2022-12-18T11:10:34.782Z,7.15
2022-12-18T11:15:50.321Z,14.73
2022-12-18T11:18:27.192Z,9.93
2022-12-18T11:20:59.049Z,10.50
2022-12-18T11:23:27.971Z,18.38
2022-12-18T11:25:58.829Z,14.68
2022-12-18T11:28:37.019Z,10.43
2022-12-18T11:31:23.445Z,8.23
2022-12-18T11:34:28.459Z,8.48
2022-12-18T11:36:59.493Z,14.25
2022-12-18T11:39:39.754Z,11.35
2022-12-18T11:42:50.348Z,8.85
2022-12-18T11:45:43.088Z,9.52
2022-12-18T11:48:28.759Z,9.38
2022-12-18T11:51:02.226Z,8.93
2022-12-18T11:53:31.510Z,9.23
2022-12-18T11:56:35.900Z,7.05
2022-12-18T11:59:58.471Z,8.98
2022-12-18T12:03:04.353Z,7.43
2022-12-18T12:06:15.802Z,7.63
2022-12-18T12:16:14.665Z,8.57
2022-12-18T12:19:07.550Z,8.23
2022-12-18T12:21:54.182Z,8.57
2022-12-18T12:39:39.912Z,10.27
2022-12-18T12:42:34.829Z,10.10
2022-12-18T12:45:07.888Z,8.70
2022-12-18T12:47:42.591Z,8.68
2022-12-18T12:50:17.188Z,10.15
2022-12-18T12:52:53.042Z,9.40
2022-12-18T12:55:29.135Z,7.93
2022-12-18T12:58:20.480Z,8.55
2022-12-18T13:01:02.723Z,9.25
2022-12-18T13:07:29.392Z,9.30
2022-12-18T13:10:26.888Z,9.32
2022-12-18T13:13:23.576Z,8.25
2022-12-18T13:16:19.882Z,10.05
2022-12-18T13:18:55.982Z,7.32
2022-12-18T13:21:32.204Z,9.05
2022-12-18T13:24:17.154Z,9.27
2022-12-18T13:26:44.253Z,8.75
2022-12-18T13:29:11.457Z,7.30
2022-12-18T13:32:01.921Z,10.75
2022-12-18T13:34:32.730Z,7.53
2022-12-18T13:39:46.998Z,6.95
2022-12-18T13:42:57.717Z,7.57
2022-12-18T13:45:47.491Z,8.27
2022-12-18T13:48:24.864Z,9.18
2022-12-18T13:51:12.600Z,7.85
2022-12-18T13:53:45.629Z,7.78
2022-12-18T13:56:18.872Z,8.68
2022-12-18T13:58:46.379Z,7.53
2022-12-18T14:01:32.104Z,7.68
2022-12-18T14:04:33.835Z,7.35
2022-12-18T14:07:07.072Z,8.30
2022-12-18T14:09:38.884Z,8.35
2022-12-18T14:12:32.056Z,7.60
2022-12-18T14:15:01.538Z,7.60
2022-12-18T14:17:28.707Z,9.98
2022-12-18T14:19:57.180Z,8.27
2022-12-18T14:22:31.359Z,8.38
2022-12-18T14:25:19.951Z,8.38
2022-12-18T14:27:51.408Z,8.70
2022-12-18T14:30:41.604Z,6.07
2022-12-18T14:33:14.004Z,7.47
2022-12-18T14:36:03.800Z,8.23
2022-12-18T14:38:38.923Z,7.13
2022-12-18T14:41:22.464Z,6.13
2022-12-18T14:43:51.966Z,6.20
2022-12-18T14:46:41.685Z,6.93
2022-12-18T14:49:31.580Z,6.15
2022-12-18T14:52:03.345Z,8.95
2022-12-18T14:54:31.479Z,8.07
2022-12-18T14:57:06.935Z,6.55
2022-12-18T14:59:34.468Z,4.60
2022-12-18T15:02:23.181Z,5.47
2022-12-18T15:05:12.852Z,7.45
2022-12-18T15:07:45.924Z,8.23
2022-12-18T15:10:22.044Z,8.52
2022-12-18T15:13:22.875Z,6.45
2022-12-18T15:15:50.869Z,6.60
2022-12-18T15:18:23.046Z,6.80
2022-12-18T15:20:58.763Z,8.50
2022-12-18T15:23:50.421Z,8.23
2022-12-18T15:28:53.148Z,6.97
2022-12-18T15:31:31.050Z,7.85
2022-12-18T15:34:11.973Z,8.30
2022-12-18T15:36:39.390Z,7.25
2022-12-18T15:39:07.178Z,8.40
2022-12-18T15:41:36.892Z,9.55
2022-12-18T15:44:22.605Z,6.65
2022-12-18T15:46:49.977Z,5.97
2022-12-18T15:49:17.151Z,7.95
2022-12-18T15:51:45.004Z,8.20
2022-12-18T15:54:17.475Z,8.38
2022-12-18T15:57:02.742Z,7.55
2022-12-18T15:59:29.831Z,10.70
2022-12-18T16:02:00.528Z,10.13
2022-12-18T16:04:27.915Z,11.38
2022-12-18T16:09:43.222Z,8.68
2022-12-18T16:12:20.627Z,9.25
2022-12-18T16:14:48.605Z,8.88
2022-12-18T16:17:16.198Z,9.65
2022-12-18T16:19:43.446Z,8.68
2022-12-18T16:22:23.360Z,8.10
2022-12-18T16:24:51.955Z,9.13
2022-12-18T16:27:20.128Z,9.25
2022-12-18T16:29:47.364Z,7.13
2022-12-18T16:32:18.721Z,9.00
2022-12-18T16:34:47.447Z,10.52
2022-12-18T16:37:16.116Z,10.52
2022-12-18T16:39:43.672Z,9.25
2022-12-18T16:42:20.124Z,10.10
2022-12-18T16:44:48.755Z,9.32
2022-12-18T16:47:17.492Z,8.57
2022-12-18T16:49:51.915Z,9.52
2022-12-18T16:52:20.963Z,11.23
2022-12-18T16:54:48.071Z,11.20
2022-12-18T16:57:18.461Z,10.38
2022-12-18T16:59:45.769Z,9.55
2022-12-18T17:02:17.150Z,9.77
2022-12-18T17:04:47.031Z,9.80
2022-12-18T17:07:15.288Z,9.02
2022-12-18T17:09:43.010Z,10.10
2022-12-18T17:12:10.742Z,10.43
2022-12-18T17:14:37.979Z,8.30
2022-12-18T17:17:20.982Z,8.80
2022-12-18T17:19:49.372Z,9.18
2022-12-18T17:22:17.491Z,9.60
2022-12-18T17:24:44.673Z,10.85
2022-12-18T17:27:11.829Z,9.68
2022-12-18T17:29:47.270Z,9.25
2022-12-18T17:32:15.436Z,9.52
2022-12-18T17:34:42.489Z,9.00
2022-12-18T17:37:09.853Z,8.50
2022-12-18T17:39:37.014Z,10.70
2022-12-18T17:42:05.253Z,8.77
2022-12-18T17:44:34.463Z,8.23
2022-12-18T17:47:01.754Z,10.02
2022-12-18T17:49:29.078Z,8.00
2022-12-18T17:51:56.392Z,9.32
2022-12-18T17:54:23.374Z,8.70
2022-12-18T17:56:50.437Z,8.80
2022-12-18T17:59:17.479Z,7.57
2022-12-18T18:01:46.107Z,13.70
2022-12-18T18:04:17.611Z,10.93
2022-12-18T18:09:15.940Z,12.15
2022-12-18T18:12:04.429Z,12.07
2022-12-18T18:14:31.914Z,12.35
2022-12-18T18:17:03.898Z,11.60
2022-12-18T18:19:32.623Z,10.98
2022-12-18T18:21:59.623Z,9.40
2022-12-18T18:24:26.804Z,11.32
2022-12-18T18:26:54.366Z,9.93
2022-12-18T18:29:25.823Z,8.50
2022-12-18T18:31:55.527Z,11.07
2022-12-18T18:34:28.474Z,10.93
2022-12-18T18:36:55.475Z,8.93
2022-12-18T18:39:22.637Z,9.63
2022-12-18T18:41:50.032Z,11.13
2022-12-18T18:44:18.210Z,8.63
2022-12-18T18:46:45.554Z,11.73
2022-12-18T18:49:13.982Z,11.02
2022-12-18T18:51:41.845Z,8.48
2022-12-18T18:54:09.424Z,9.18
2022-12-18T18:59:31.233Z,9.93
2022-12-18T19:01:59.507Z,9.20
2022-12-18T19:04:29.123Z,8.55
2022-12-18T19:06:56.822Z,10.45
2022-12-18T19:09:24.326Z,11.07
2022-12-18T19:12:11.484Z,10.75
2022-12-18T19:14:38.777Z,8.90
2022-12-18T19:17:05.886Z,10.73
2022-12-18T19:19:33.787Z,8.27
2022-12-18T19:22:02.888Z,8.70
2022-12-18T19:24:30.991Z,8.13
2022-12-18T19:26:58.324Z,8.90
2022-12-18T19:29:25.722Z,8.40
2022-12-18T19:31:53.880Z,10.80
2022-12-18T19:34:21.315Z,10.20
2022-12-18T19:36:48.418Z,8.82
2022-12-18T19:39:17.607Z,7.88
2022-12-18T19:41:45.076Z,9.15
2022-12-18T19:44:16.448Z,9.32
2022-12-18T19:46:45.690Z,8.55
2022-12-18T19:49:18.219Z,10.52
2022-12-18T19:51:45.850Z,7.80
2022-12-18T19:54:16.643Z,9.95
2022-12-18T19:56:45.226Z,8.68
2022-12-18T19:59:13.028Z,9.93
2022-12-18T20:01:40.871Z,9.68
2022-12-18T20:04:08.573Z,9.43
2022-12-18T20:06:47.307Z,11.05
2022-12-18T20:09:14.420Z,8.68
2022-12-18T20:11:42.550Z,8.85
2022-12-18T20:14:14.179Z,10.88
2022-12-18T20:16:44.154Z,9.13
2022-12-18T20:19:12.612Z,12.20
2022-12-18T20:21:40.050Z,11.50
2022-12-18T20:24:08.887Z,12.15
2022-12-18T20:26:36.187Z,8.57
2022-12-18T20:29:03.413Z,10.50
2022-12-18T20:31:30.600Z,9.80
2022-12-18T20:34:00.907Z,9.55
2022-12-18T20:36:31.724Z,12.18
2022-12-18T20:39:01.679Z,9.73
2022-12-18T20:41:37.898Z,10.23
2022-12-18T20:44:22.489Z,11.73
2022-12-18T20:47:01.114Z,11.20
2022-12-18T20:49:32.136Z,10.82
2022-12-18T20:51:59.633Z,9.50
2022-12-18T20:54:29.955Z,9.75
2022-12-18T20:56:58.064Z,8.75
2022-12-18T20:59:25.930Z,8.48
2022-12-18T21:01:53.515Z,12.05
2022-12-18T21:04:21.840Z,10.35
2022-12-18T21:06:54.185Z,10.07
2022-12-18T21:09:27.904Z,10.90
2022-12-18T21:12:20.509Z,9.48
2022-12-18T21:14:49.539Z,8.82
2022-12-18T21:17:17.275Z,9.00
2022-12-18T21:19:45.696Z,8.98
2022-12-18T21:22:14.066Z,9.88
2022-12-18T21:24:40.948Z,8.45
2022-12-18T21:27:07.926Z,9.90
2022-12-18T21:29:35.686Z,10.48
2022-12-18T21:32:03.881Z,11.52
2022-12-18T21:34:32.307Z,9.32
2022-12-18T21:37:00.627Z,8.88
2022-12-18T21:39:29.397Z,9.77
2022-12-18T21:42:15.755Z,9.55
2022-12-18T21:44:43.898Z,9.25
2022-12-18T21:47:22.112Z,10.85
2022-12-18T21:49:51.673Z,10.25
2022-12-18T21:52:19.450Z,8.18
2022-12-18T21:54:47.111Z,13.05
2022-12-18T21:57:14.039Z,10.13
2022-12-18T21:59:43.579Z,10.70
2022-12-18T22:02:16.745Z,7.82
2022-12-18T22:04:45.499Z,9.00
2022-12-18T22:07:16.011Z,9.52
2022-12-18T22:09:44.201Z,9.35
2022-12-18T22:12:13.585Z,9.10
2022-12-18T22:14:40.755Z,10.13
2022-12-18T22:17:08.034Z,9.73
2022-12-18T22:19:41.057Z,9.43
2022-12-18T22:22:10.061Z,6.78
2022-12-18T22:24:37.189Z,7.35
2022-12-18T22:27:04.354Z,10.20
2022-12-18T22:29:51.306Z,9.20
2022-12-18T22:32:31.004Z,7.55
2022-12-18T22:35:10.427Z,8.57
2022-12-18T22:37:42.062Z,8.57
2022-12-18T22:40:23.953Z,9.13
2022-12-18T22:42:52.594Z,8.27
2022-12-18T22:45:24.169Z,7.80
2022-12-18T22:50:20.319Z,8.07
2022-12-18T22:52:48.182Z,9.50
2022-12-18T22:55:15.773Z,7.22
2022-12-18T22:57:48.659Z,8.18
2022-12-18T23:00:16.889Z,9.25
2022-12-18T23:05:22.626Z,7.70
2022-12-18T23:07:50.689Z,7.35
2022-12-18T23:10:18.583Z,8.70
2022-12-18T23:12:46.198Z,8.57
2022-12-18T23:15:13.833Z,8.10
2022-12-18T23:17:43.971Z,9.27
2022-12-18T23:20:11.609Z,8.45
2022-12-18T23:22:38.620Z,7.90
2022-12-18T23:25:06.179Z,8.70
2022-12-18T23:27:33.174Z,9.80
2022-12-18T23:30:01.361Z,8.90
2022-12-18T23:32:29.329Z,8.55
2022-12-18T23:34:56.363Z,8.73
2022-12-18T23:37:56.814Z,8.88
2022-12-18T23:40:11.651Z,8.38
2022-12-18T23:42:39.137Z,9.80
2022-12-18T23:45:16.604Z,8.30
2022-12-18T23:47:44.933Z,8.25
2022-12-18T23:50:14.180Z,8.70
2022-12-18T23:52:41.361Z,7.88
2022-12-18T23:55:09.854Z,7.95
2022-12-18T23:57:36.957Z,7.45
